Saturday, December 15, 2018, 10:33 PM EST
Back to Local

KOWD, Norwood Memorial Airport

Location: Norwood, MA, United States Lat: 42.183
Local Time: 10:33 PM EST ( 3:33 GMT) Lon: -71.167
Time Zone: US/Eastern Elev: 49 ft

Show me the last for .
Show Decoded

2018-12-15 21:53 METAR KOWD 160253Z AUTO 04005KT 10SM CLR 07/01 A3025 RMK AO2 SLP242 T00670006
                 51021 =
2018-12-15 20:53 METAR KOWD 160153Z AUTO 01005KT 10SM CLR 07/01 A3023 RMK AO2 SLP237 T00670011 =
2018-12-15 19:53 METAR KOWD 160053Z AUTO 04003KT 10SM CLR 08/03 A3023 RMK AO2 SLP237 T00780028 =
2018-12-15 18:53 METAR KOWD 152353Z 05008KT 10SM CLR 08/03 A3019 RMK AO2 SLP221 T00780028 10128
                 20078 51013 =
2018-12-15 17:53 METAR KOWD 152253Z 04010KT 10SM CLR 09/02 A3018 RMK AO2 SLP219 T00890022 =
2018-12-15 16:53 METAR KOWD 152153Z 03004KT 10SM CLR 11/03 A3016 RMK AO2 SLP214 T01060033 =
2018-12-15 15:53 METAR KOWD 152053Z 03003KT 10SM CLR 09/07 A3015 RMK AO2 SLP209 T00940067 53005 =
2018-12-15 14:53 METAR KOWD 151953Z 00000KT 10SM CLR 11/08 A3014 RMK AO2 SLP204 T01110078 =
2018-12-15 13:53 METAR KOWD 151853Z 31004KT 10SM CLR 12/07 A3013 RMK AO2 SLP202 T01220072 =
2018-12-15 12:53 METAR KOWD 151753Z 00000KT 10SM CLR 13/08 A3013 RMK AO2 SLP204 60004 T01280078
                 10128 20094 56024 =
2018-12-15 11:53 METAR KOWD 151653Z VRB03KT 10SM CLR 12/09 A3014 RMK AO2 SLP206 T01220089 =
2018-12-15 10:53 METAR KOWD 151553Z 29003KT 10SM SCT007 BKN060 OVC075 11/09 A3017 RMK AO2 SLP217
                 T01110094 =
2018-12-15 10:00 METAR KOWD 151500Z 00000KT 10SM FEW005 OVC050 10/09 A3021 RMK AO2 T01000089 =
2018-12-15 09:53 METAR KOWD 151453Z 00000KT 10SM BKN007 OVC050 10/09 A3021 RMK AO2 SLP228 60004
                 T01000089 51009 =
2018-12-15 09:50 METAR KOWD 151450Z 00000KT 10SM BKN007 OVC050 10/09 A3020 RMK AO2 =
2018-12-15 09:00 METAR KOWD 151400Z 20005KT 10SM BKN042 OVC055 10/08 A3019 RMK AO2 T01000083 =
2018-12-15 08:53 METAR KOWD 151353Z 20004KT 8SM BKN026 OVC031 10/09 A3019 RMK AO2 RAE07 SLP224
                 P0001 T01000089 =
2018-12-15 08:10 METAR KOWD 151310Z 00000KT 3SM BR OVC027 09/09 A3020 RMK AO2 RAE07 P0001
                 T00940089 =
2018-12-15 07:53 METAR KOWD 151253Z 22003KT 1 1/2SM -RA BR OVC023 09/08 A3019 RMK AO2 SLP224
                 P0003 T00940083 =
2018-12-15 07:41 METAR KOWD 151241Z 22003KT 1 1/4SM -RA BR FEW005 OVC021 09/08 A3019 RMK AO2
                 P0003 T00940083 =
2018-12-15 07:14 METAR KOWD 151214Z 00000KT 2SM -RA BR FEW005 OVC019 09/08 A3018 RMK AO2 P0001
                 T00940083 =
2018-12-15 06:53 METAR KOWD 151153Z VRB04KT 3SM -RA BR OVC019 09/08 A3018 RMK AO2 RAB27 SLP219
                 P0001 60001 70001 T00940083 10100 20089 53003 =
2018-12-15 05:53 METAR KOWD 151053Z AUTO 22003KT 10SM SCT009 OVC019 10/08 A3016 RMK AO2 SLP214
                 T01000083 =
2018-12-15 05:36 METAR KOWD 151036Z AUTO 22004KT 10SM BKN009 BKN023 OVC042 10/08 A3016 RMK AO2
                 T01000078 =
2018-12-15 05:26 METAR KOWD 151026Z AUTO 21006KT 10SM SCT009 OVC042 10/08 A3015 RMK AO2 T01000078
                 =
2018-12-15 04:53 METAR KOWD 150953Z AUTO 21003KT 10SM BKN035 OVC041 10/08 A3016 RMK AO2 RAB36E45
                 SLP212 P0000 T01000078 =
2018-12-15 03:53 METAR KOWD 150853Z AUTO 20004KT 10SM BKN042 OVC049 09/07 A3017 RMK AO2 SLP216
                 T00940072 57011 =
2018-12-15 02:53 METAR KOWD 150753Z AUTO 22003KT 10SM BKN049 BKN120 09/08 A3019 RMK AO2 SLP222
                 T00940078 =
2018-12-15 02:04 METAR KOWD 150704Z AUTO 20006KT 10SM SCT009 BKN065 OVC075 09/08 A3019 RMK AO2
                 T00940078 =
2018-12-15 01:53 METAR KOWD 150653Z AUTO 19006KT 10SM SCT007 BKN011 OVC060 09/08 A3019 RMK AO2
                 SLP222 T00890078 =
2018-12-15 00:53 METAR KOWD 150553Z AUTO 21006KT 10SM OVC006 09/07 A3020 RMK AO2 SLP228 T00890072
                 10094 20056 58020 =
2018-12-15 00:02 METAR KOWD 150502Z AUTO 20006KT 6SM BR OVC005 08/07 A3022 RMK AO2 T00830067 =
2018-12-14 23:53 METAR KOWD 150453Z AUTO 19006KT 6SM BR OVC004 08/07 A3023 RMK AO2 SLP234
                 T00780067 400941067 =
2018-12-14 23:14 METAR KOWD 150414Z AUTO 20006KT 6SM BR OVC004 08/07 A3024 RMK AO2 T00780067 =
2018-12-14 22:53 METAR KOWD 150353Z AUTO 19005KT 8SM OVC005 08/06 A3026 RMK AO2 SLP246 T00780061
                 =

Support USWX by starting your Amazon purchase here.